createdAt,value
2022-10-18T00:00:50.781Z,11.63
2022-10-18T00:03:53.578Z,9.37
2022-10-18T00:06:56.123Z,11.27
2022-10-18T00:09:59.044Z,10.63
2022-10-18T00:13:01.613Z,10.25
2022-10-18T00:16:05.645Z,8.63
2022-10-18T00:19:08.053Z,10.20
2022-10-18T00:22:10.940Z,8.38
2022-10-18T00:25:13.652Z,10.30
2022-10-18T00:28:16.376Z,8.38
2022-10-18T00:31:19.952Z,9.13
2022-10-18T00:34:22.687Z,9.87
2022-10-18T00:37:25.125Z,9.13
2022-10-18T00:40:27.877Z,9.15
2022-10-18T00:43:30.556Z,8.63
2022-10-18T00:46:38.653Z,9.80
2022-10-18T00:49:43.606Z,11.13
2022-10-18T00:52:49.620Z,12.30
2022-10-18T00:55:52.125Z,11.02
2022-10-18T00:58:54.934Z,10.00
2022-10-18T01:01:57.544Z,9.43
2022-10-18T01:05:00.264Z,12.87
2022-10-18T01:08:29.327Z,9.32
2022-10-18T01:12:03.069Z,13.05
2022-10-18T01:15:27.061Z,16.80
2022-10-18T01:18:33.231Z,9.77
2022-10-18T01:21:47.698Z,10.67
2022-10-18T01:25:07.290Z,12.40
2022-10-18T01:28:33.725Z,12.32
2022-10-18T01:31:56.370Z,13.90
2022-10-18T01:35:09.513Z,10.60
2022-10-18T01:38:17.226Z,13.47
2022-10-18T01:41:22.668Z,12.68
2022-10-18T01:44:27.217Z,10.30
2022-10-18T01:47:31.226Z,11.52
2022-10-18T01:50:35.178Z,11.53
2022-10-18T01:53:37.661Z,11.03
2022-10-18T01:57:00.544Z,12.20
2022-10-18T02:00:17.394Z,12.93
2022-10-18T02:03:24.522Z,11.77
2022-10-18T02:06:32.511Z,11.30
2022-10-18T02:09:43.518Z,10.17
2022-10-18T02:12:47.001Z,9.05
2022-10-18T02:15:54.652Z,10.90
2022-10-18T02:19:12.213Z,11.38
2022-10-18T02:22:15.346Z,10.10
2022-10-18T02:25:21.976Z,11.93
2022-10-18T02:31:36.042Z,9.98
2022-10-18T02:34:49.463Z,15.20
2022-10-18T02:37:53.071Z,10.47
2022-10-18T02:40:55.765Z,13.77
2022-10-18T02:43:58.279Z,11.20
2022-10-18T02:47:01.603Z,11.90
2022-10-18T02:50:04.395Z,11.98
2022-10-18T02:53:08.815Z,12.23
2022-10-18T02:56:11.295Z,15.53
2022-10-18T02:59:14.293Z,12.32
2022-10-18T03:02:16.816Z,12.50
2022-10-18T03:05:19.526Z,12.07
2022-10-18T03:08:22.818Z,13.63
2022-10-18T03:11:25.619Z,12.13
2022-10-18T03:14:28.080Z,12.88
2022-10-18T03:17:30.969Z,10.65
2022-10-18T03:20:34.482Z,12.15
2022-10-18T03:23:37.332Z,12.30
2022-10-18T03:26:39.854Z,11.30
2022-10-18T03:29:42.735Z,15.75
2022-10-18T03:32:45.318Z,14.35
2022-10-18T03:35:48.007Z,12.80
2022-10-18T03:38:50.571Z,13.77
2022-10-18T03:41:53.335Z,17.43
2022-10-18T03:44:55.757Z,14.80
2022-10-18T03:51:02.542Z,17.85
2022-10-18T03:54:05.314Z,14.77
2022-10-18T03:57:07.741Z,15.70
2022-10-18T04:00:11.049Z,14.98
2022-10-18T04:03:15.267Z,17.75
2022-10-18T04:06:17.955Z,17.12
2022-10-18T04:09:24.731Z,14.57
2022-10-18T04:12:27.613Z,17.90
2022-10-18T04:15:30.092Z,19.48
2022-10-18T04:18:32.876Z,15.98
2022-10-18T04:21:35.341Z,19.27
2022-10-18T04:24:38.863Z,16.70
2022-10-18T04:27:41.338Z,17.03
2022-10-18T04:30:44.280Z,21.58
2022-10-18T04:33:46.760Z,18.92
2022-10-18T04:36:49.540Z,18.48
2022-10-18T04:39:53.663Z,17.83
2022-10-18T04:42:56.658Z,20.87
2022-10-18T04:45:59.109Z,16.35
2022-10-18T04:49:01.866Z,17.12
2022-10-18T04:52:04.508Z,22.13
2022-10-18T04:55:07.515Z,17.27
2022-10-18T04:58:09.935Z,17.97
2022-10-18T05:01:13.285Z,21.02
2022-10-18T05:04:15.770Z,20.62
2022-10-18T05:07:18.912Z,18.27
2022-10-18T05:10:23.138Z,18.70
2022-10-18T05:13:26.175Z,16.43
2022-10-18T05:16:28.648Z,16.50
2022-10-18T05:19:31.570Z,16.12
2022-10-18T05:22:34.181Z,17.80
2022-10-18T05:25:41.513Z,15.60
2022-10-18T05:28:44.200Z,19.93
2022-10-18T05:31:48.687Z,17.27
2022-10-18T05:34:51.277Z,14.93
2022-10-18T05:37:54.421Z,15.90
2022-10-18T05:40:57.813Z,18.43
2022-10-18T05:44:04.827Z,17.47
2022-10-18T05:47:07.334Z,17.25
2022-10-18T05:50:10.072Z,17.40
2022-10-18T05:53:24.759Z,16.62
2022-10-18T05:56:35.327Z,20.90
2022-10-18T05:59:37.921Z,18.53
2022-10-18T06:02:40.795Z,17.17
2022-10-18T06:05:43.722Z,20.10
2022-10-18T06:08:49.460Z,20.62
2022-10-18T06:11:52.164Z,18.00
2022-10-18T06:14:54.659Z,17.30
2022-10-18T06:17:59.117Z,20.55
2022-10-18T06:21:01.645Z,20.12
2022-10-18T06:24:04.628Z,18.17
2022-10-18T06:27:09.440Z,14.63
2022-10-18T06:30:12.268Z,14.87
2022-10-18T06:33:14.852Z,14.95
2022-10-18T06:36:19.935Z,14.95
2022-10-18T06:39:22.586Z,15.15
2022-10-18T06:42:25.334Z,14.40
2022-10-18T06:45:27.839Z,11.20
2022-10-18T06:48:31.704Z,12.15
2022-10-18T06:51:34.299Z,13.80
2022-10-18T06:54:37.082Z,17.17
2022-10-18T06:57:39.597Z,15.00
2022-10-18T07:00:44.290Z,13.13
2022-10-18T07:03:48.424Z,11.25
2022-10-18T07:06:54.183Z,16.12
2022-10-18T07:09:56.769Z,12.00
2022-10-18T07:13:19.945Z,14.23
2022-10-18T07:16:22.343Z,11.43
2022-10-18T07:19:25.243Z,16.92
2022-10-18T07:22:30.298Z,13.18
2022-10-18T07:25:33.318Z,12.93
2022-10-18T07:28:36.095Z,10.97
2022-10-18T07:31:39.284Z,11.83
2022-10-18T07:34:41.949Z,12.37
2022-10-18T07:37:44.809Z,16.45
2022-10-18T07:40:47.901Z,13.27
2022-10-18T07:43:51.969Z,10.67
2022-10-18T07:46:54.435Z,11.67
2022-10-18T07:49:57.191Z,12.82
2022-10-18T07:52:59.805Z,12.32
2022-10-18T07:56:08.590Z,14.18
2022-10-18T07:59:12.456Z,12.10
2022-10-18T08:02:15.292Z,12.93
2022-10-18T08:05:18.058Z,12.85
2022-10-18T08:08:21.874Z,14.52
2022-10-18T08:11:25.401Z,11.20
2022-10-18T08:14:27.998Z,13.97
2022-10-18T08:17:31.227Z,12.60
2022-10-18T08:20:36.330Z,10.98
2022-10-18T08:23:39.299Z,10.75
2022-10-18T08:26:41.924Z,13.07
2022-10-18T08:29:44.756Z,12.13
2022-10-18T08:32:47.281Z,13.73
2022-10-18T08:36:01.027Z,13.35
2022-10-18T08:39:03.715Z,13.80
2022-10-18T08:42:31.139Z,13.20
2022-10-18T08:45:42.506Z,9.60
2022-10-18T08:48:49.228Z,14.07
2022-10-18T08:51:52.354Z,9.52
2022-10-18T08:55:19.825Z,10.98
2022-10-18T08:58:24.293Z,10.15
2022-10-18T09:01:39.431Z,10.18
2022-10-18T09:04:50.831Z,10.13
2022-10-18T09:08:22.111Z,9.38
2022-10-18T09:11:53.015Z,11.15
2022-10-18T09:15:14.693Z,13.20
2022-10-18T09:18:52.091Z,9.35
2022-10-18T09:21:56.718Z,8.83
2022-10-18T09:25:08.439Z,9.63
2022-10-18T09:28:14.051Z,8.93
2022-10-18T09:31:48.989Z,8.40
2022-10-18T09:35:15.830Z,8.25
2022-10-18T09:38:21.747Z,10.87
2022-10-18T09:41:38.004Z,8.20
2022-10-18T09:45:27.193Z,8.75
2022-10-18T09:48:37.717Z,7.53
2022-10-18T09:51:42.247Z,9.75
2022-10-18T09:55:20.602Z,8.50
2022-10-18T09:58:24.292Z,6.87
2022-10-18T10:01:30.085Z,7.10
2022-10-18T10:04:33.242Z,11.35
2022-10-18T10:07:42.615Z,7.97
2022-10-18T10:10:47.659Z,10.17
2022-10-18T10:13:50.233Z,9.05
2022-10-18T10:17:05.783Z,9.63
2022-10-18T10:20:19.128Z,8.88
2022-10-18T10:23:30.890Z,6.63
2022-10-18T10:26:38.925Z,8.60
2022-10-18T10:29:47.882Z,8.65
2022-10-18T10:32:51.494Z,9.85
2022-10-18T10:35:59.499Z,11.50
2022-10-18T10:39:04.668Z,7.30
2022-10-18T10:42:12.834Z,9.70
2022-10-18T10:45:15.445Z,8.48
2022-10-18T10:48:20.044Z,12.07
2022-10-18T10:51:32.429Z,8.43
2022-10-18T10:54:38.921Z,10.60
2022-10-18T10:57:44.648Z,12.23
2022-10-18T11:00:47.352Z,11.12
2022-10-18T11:03:52.062Z,9.85
2022-10-18T11:07:03.181Z,12.20
2022-10-18T11:10:12.295Z,7.80
2022-10-18T11:13:23.696Z,7.67
2022-10-18T11:16:48.082Z,15.75
2022-10-18T11:20:09.792Z,9.23
2022-10-18T11:23:14.270Z,9.82
2022-10-18T11:27:14.175Z,10.33
2022-10-18T11:31:09.521Z,8.50
2022-10-18T11:34:33.710Z,20.55
2022-10-18T11:38:11.164Z,9.70
2022-10-18T11:41:38.386Z,10.20
2022-10-18T11:44:53.972Z,13.53
2022-10-18T11:48:33.764Z,19.00
2022-10-18T11:52:06.713Z,10.20
2022-10-18T11:55:09.536Z,7.40
2022-10-18T11:58:36.675Z,8.52
2022-10-18T12:01:57.798Z,9.60
2022-10-18T12:08:35.335Z,10.23
2022-10-18T12:11:46.843Z,8.80
2022-10-18T12:15:05.726Z,10.13
2022-10-18T12:18:17.768Z,8.43
2022-10-18T12:21:25.445Z,10.10
2022-10-18T12:24:30.485Z,10.15
2022-10-18T12:27:46.756Z,8.80
2022-10-18T12:30:56.093Z,9.50
2022-10-18T12:34:02.144Z,11.07
2022-10-18T12:37:22.728Z,10.83
2022-10-18T12:40:41.756Z,12.37
2022-10-18T12:43:51.756Z,10.60
2022-10-18T12:46:59.721Z,13.27
2022-10-18T12:50:06.606Z,8.67
2022-10-18T12:53:09.563Z,11.30
2022-10-18T12:56:27.945Z,10.00
2022-10-18T12:59:30.289Z,15.57
2022-10-18T13:02:33.640Z,8.73
2022-10-18T13:05:54.301Z,11.33
2022-10-18T13:09:21.486Z,9.03
2022-10-18T13:12:23.832Z,9.73
2022-10-18T13:15:39.557Z,13.57
2022-10-18T13:18:53.496Z,12.20
2022-10-18T13:22:14.718Z,7.23
2022-10-18T13:25:21.154Z,9.33
2022-10-18T13:28:28.889Z,10.05
2022-10-18T13:31:54.817Z,10.52
2022-10-18T13:34:57.587Z,12.37
2022-10-18T13:38:00.131Z,9.27
2022-10-18T13:41:14.894Z,10.03
2022-10-18T13:44:25.331Z,17.02
2022-10-18T13:47:38.449Z,11.65
2022-10-18T13:50:42.449Z,8.27
2022-10-18T13:54:04.007Z,10.67
2022-10-18T13:57:09.355Z,9.93
2022-10-18T14:00:27.640Z,18.73
2022-10-18T14:07:02.240Z,12.88
2022-10-18T14:10:10.289Z,10.60
2022-10-18T14:13:20.982Z,15.47
2022-10-18T14:16:29.775Z,12.73
2022-10-18T14:19:41.333Z,10.32
2022-10-18T14:23:03.013Z,9.75
2022-10-18T14:26:14.809Z,9.87
2022-10-18T14:29:19.870Z,9.97
2022-10-18T14:32:26.092Z,8.90
2022-10-18T14:35:33.054Z,9.60
2022-10-18T14:38:37.969Z,10.30
2022-10-18T14:41:52.129Z,11.07
2022-10-18T14:44:56.495Z,12.77
2022-10-18T14:48:14.847Z,15.80
2022-10-18T14:51:19.857Z,12.60
2022-10-18T14:54:33.926Z,10.48
2022-10-18T14:57:37.089Z,10.23
2022-10-18T15:00:41.845Z,13.57
2022-10-18T15:03:47.498Z,11.82
2022-10-18T15:06:50.349Z,11.80
2022-10-18T15:09:53.743Z,13.82
2022-10-18T15:13:11.163Z,13.60
2022-10-18T15:16:19.221Z,13.23
2022-10-18T15:19:21.921Z,14.20
2022-10-18T15:22:31.612Z,12.13
2022-10-18T15:25:35.988Z,12.50
2022-10-18T15:28:58.724Z,13.50
2022-10-18T15:32:21.673Z,14.33
2022-10-18T15:35:27.958Z,13.70
2022-10-18T15:38:32.758Z,17.42
2022-10-18T15:41:49.794Z,16.25
2022-10-18T15:44:52.552Z,16.00
2022-10-18T15:48:07.038Z,12.67
2022-10-18T15:51:37.218Z,14.25
2022-10-18T15:54:39.739Z,15.35
2022-10-18T15:57:43.050Z,28.20
2022-10-18T16:00:46.985Z,29.20
2022-10-18T16:03:50.865Z,21.60
2022-10-18T16:06:55.540Z,54.22
2022-10-18T16:09:59.268Z,18.12
2022-10-18T16:13:01.739Z,19.87
2022-10-18T16:16:04.655Z,13.47
2022-10-18T16:19:08.264Z,13.20
2022-10-18T16:25:16.064Z,13.52
2022-10-18T16:28:23.934Z,14.05
2022-10-18T16:31:31.980Z,13.83
2022-10-18T16:34:34.754Z,11.17
2022-10-18T16:37:38.321Z,11.77
2022-10-18T16:40:41.491Z,15.27
2022-10-18T16:43:45.850Z,14.85
2022-10-18T16:46:51.153Z,18.17
2022-10-18T16:49:56.376Z,18.70
2022-10-18T16:52:59.087Z,20.10
2022-10-18T16:56:03.198Z,16.98
2022-10-18T16:59:05.970Z,16.12
2022-10-18T17:02:09.312Z,13.77
2022-10-18T17:05:12.135Z,16.70
2022-10-18T17:08:23.754Z,17.48
2022-10-18T17:11:28.370Z,43.10
2022-10-18T17:14:33.310Z,36.95
2022-10-18T17:17:36.314Z,54.43
2022-10-18T17:20:39.032Z,32.17
2022-10-18T17:23:41.874Z,30.73
2022-10-18T17:26:44.347Z,21.67
2022-10-18T17:29:47.080Z,23.35
2022-10-18T17:32:49.547Z,22.97
2022-10-18T17:35:52.318Z,23.83
2022-10-18T17:38:55.108Z,23.35
2022-10-18T17:41:58.082Z,20.85
2022-10-18T17:45:00.990Z,20.40
2022-10-18T17:48:03.788Z,33.57
2022-10-18T17:51:11.363Z,25.47
2022-10-18T17:54:14.180Z,36.97
2022-10-18T17:57:16.838Z,36.53
2022-10-18T18:00:19.645Z,53.35
2022-10-18T18:03:22.551Z,51.17
2022-10-18T18:06:34.161Z,72.07
2022-10-18T18:09:37.083Z,40.67
2022-10-18T18:12:39.590Z,39.80
2022-10-18T18:15:42.301Z,26.95
2022-10-18T18:18:47.197Z,40.30
2022-10-18T18:21:53.685Z,45.87
2022-10-18T18:24:56.213Z,49.85
2022-10-18T18:28:01.467Z,52.50
2022-10-18T18:31:14.584Z,56.58
2022-10-18T18:34:17.816Z,53.37
2022-10-18T18:37:20.659Z,52.03
2022-10-18T18:40:23.927Z,52.85
2022-10-18T18:43:26.370Z,50.22
2022-10-18T18:46:33.078Z,50.17
2022-10-18T18:49:35.566Z,47.00
2022-10-18T18:52:38.267Z,53.43
2022-10-18T18:55:42.092Z,42.90
2022-10-18T18:58:45.543Z,47.75
2022-10-18T19:01:48.087Z,46.75
2022-10-18T19:04:51.484Z,54.10
2022-10-18T19:07:53.965Z,52.23
2022-10-18T19:10:57.531Z,44.30
2022-10-18T19:14:00.900Z,45.88
2022-10-18T19:17:07.111Z,47.45
2022-10-18T19:20:12.727Z,39.50
2022-10-18T19:23:15.894Z,40.27
2022-10-18T19:26:46.056Z,37.13
2022-10-18T19:29:48.901Z,40.08
2022-10-18T19:32:59.880Z,39.40
2022-10-18T19:36:05.971Z,41.77
2022-10-18T19:39:11.174Z,35.27
2022-10-18T19:42:18.606Z,39.83
2022-10-18T19:45:24.974Z,37.83
2022-10-18T19:48:27.693Z,40.12
2022-10-18T19:51:30.167Z,39.93
2022-10-18T19:54:32.896Z,45.73
2022-10-18T19:57:35.370Z,46.15
2022-10-18T20:00:40.037Z,43.15
2022-10-18T20:03:43.182Z,44.03
2022-10-18T20:06:45.689Z,41.33
2022-10-18T20:09:48.588Z,42.17
2022-10-18T20:12:51.116Z,40.22
2022-10-18T20:15:54.167Z,48.05
2022-10-18T20:18:58.563Z,42.92
2022-10-18T20:22:01.425Z,42.37
2022-10-18T20:25:04.029Z,41.87
2022-10-18T20:28:07.031Z,43.95
2022-10-18T20:31:15.397Z,40.90
2022-10-18T20:34:18.323Z,36.97
2022-10-18T20:37:20.844Z,36.03
2022-10-18T20:40:23.912Z,35.47
2022-10-18T20:43:26.412Z,34.10
2022-10-18T20:46:34.404Z,36.55
2022-10-18T20:49:37.026Z,38.35
2022-10-18T20:52:39.736Z,35.90
2022-10-18T20:55:43.637Z,29.10
2022-10-18T20:58:47.019Z,33.47
2022-10-18T21:01:49.536Z,30.08
2022-10-18T21:04:52.332Z,29.63
2022-10-18T21:07:54.764Z,28.77
2022-10-18T21:11:01.089Z,31.97
2022-10-18T21:14:04.467Z,33.33
2022-10-18T21:17:07.178Z,38.08
2022-10-18T21:20:10.435Z,37.60
2022-10-18T21:23:13.176Z,36.27
2022-10-18T21:26:21.140Z,29.77
2022-10-18T21:29:27.037Z,29.00
2022-10-18T21:32:29.588Z,31.00
2022-10-18T21:35:37.767Z,31.55
2022-10-18T21:38:40.424Z,29.30
2022-10-18T21:41:43.417Z,29.57
2022-10-18T21:44:45.967Z,29.23
2022-10-18T21:47:48.730Z,31.02
2022-10-18T21:50:51.366Z,30.25
2022-10-18T21:53:56.166Z,30.00
2022-10-18T21:56:58.629Z,21.50
2022-10-18T22:00:01.487Z,22.65
2022-10-18T22:03:11.466Z,22.42
2022-10-18T22:06:15.391Z,28.75
2022-10-18T22:09:17.945Z,19.90
2022-10-18T22:12:20.729Z,22.47
2022-10-18T22:15:23.336Z,23.75
2022-10-18T22:18:26.196Z,21.92
2022-10-18T22:21:29.624Z,25.67
2022-10-18T22:24:32.435Z,23.10
2022-10-18T22:27:35.407Z,24.63
2022-10-18T22:30:40.118Z,25.65
2022-10-18T22:33:42.836Z,24.35
2022-10-18T22:36:45.964Z,27.05
2022-10-18T22:39:48.387Z,24.37
2022-10-18T22:42:53.991Z,30.17
2022-10-18T22:45:56.513Z,23.17
2022-10-18T22:48:59.259Z,29.08
2022-10-18T22:52:01.693Z,27.08
2022-10-18T22:55:04.710Z,26.00
2022-10-18T22:58:07.356Z,27.30
2022-10-18T23:01:15.675Z,28.50
2022-10-18T23:04:18.094Z,24.87
2022-10-18T23:07:20.938Z,24.90
2022-10-18T23:10:24.970Z,23.67
2022-10-18T23:13:28.190Z,27.20
2022-10-18T23:16:31.494Z,22.77
2022-10-18T23:19:34.190Z,28.80
2022-10-18T23:22:36.691Z,25.88
2022-10-18T23:25:39.523Z,32.77
2022-10-18T23:28:43.956Z,27.37
2022-10-18T23:31:46.771Z,25.45
2022-10-18T23:34:49.187Z,28.83
2022-10-18T23:37:52.483Z,27.15
2022-10-18T23:40:56.342Z,30.67
2022-10-18T23:43:59.060Z,25.60
2022-10-18T23:47:01.591Z,30.52
2022-10-18T23:50:05.569Z,33.00
2022-10-18T23:53:08.038Z,29.75
2022-10-18T23:56:12.864Z,25.73
2022-10-18T23:59:15.297Z,18.13
